SEKCJA WYDRUKÓW, pokaż »

METAR EPBY 062230Z 24006KT 7000 -RA BKN002 OVC004 02/02 Q1009=

METAR EPGD 062230Z 24004KT 7000 OVC004 01/01 Q1007 =

METAR EPKK 062230Z 24007KT 9999 BKN007 02/01 Q1011 =

METAR EPKT 062230Z 23008KT 2100 -SN BR OVC002 00/00 Q1011 =

METAR EPLB 062230Z 18004KT 3800 -SNRA BR BKN003 01/00 Q1010 =

METAR EPLL 062230Z 26009KT 5000 -RA BR OVC003 01/01 Q1010 =

METAR EPML 062230Z NIL=

METAR EPMO 062230Z 21002KT 2200 -SN BR OVC005 00/00 Q1009 =

METAR EPPO 062230Z 25007KT 6000 -DZ OVC003 02/02 Q1010 =

METAR EPRA 062230Z NIL=

METAR EPRZ 062230Z 22011KT 8000 -RA BKN008 02/01 Q1011 =

METAR EPSC 062230Z 26007KT 9999 SCT003 BKN005 02/02 Q1011 =

METAR EPSY 062230Z VRB01KT 1300 R01/P2000N SN BKN002 OVC007 M00/M00
Q1009=

METAR EPWA 062230Z 25003KT 3300 -SN BR SCT002 BKN010 00/00 Q1009
NOSIG=

METAR EPWR 062230Z 29006KT 270V330 9000 -RA FEW006 SCT009 BKN011
02/01 Q1012 =

METAR EPZG 062230Z NIL=
 METAR EPWR
Lokalizacja:EPWR Wrocław Strachowice
Czas:22:30 UTC
Średni kierunek wiatru:290 °
Średnia prędkość wiatru:6 węzłów
Kierunek wiatru zmienia się od:270 °
Kierunek wiatru zmienia się do:330 °
Widzialność:9 kilometrów
Opad:deszcz
Intensywność:słaba
Pierwsza warstwa chmur:1/8 do 2/8, wysokość podstawy 600 FT
Druga warstwa chmur:3/8 do 4/8, wysokość podstawy 900 FT
Trzecia warstwa chmur:5/8 do 7/8, wysokość podstawy 1100 FT
Temperatura powietrza:2 °C
Temperatura punktu rosy:1 °C
Ciśnienie QNH:1012 hPa